Time;durP1;ratioP1;P1;durP2;ratioP2;P2;SDS_P1;SDS_P2;PMS_P1;PMS_P2;Temp;Humidity;BMP_temperature;BMP_pressure;BME280_temperature;BME280_humidity;BME280_pressure;Samples;Min_cycle;Max_cycle;Signal;HPM_P1;HPM_P2
2022/07/04 00:00:17;;;;;;;4.03;2.30;;;13.20;99.90;;;;;;5065816;28;20048;-76
2022/07/04 00:02:44;;;;;;;8.13;3.65;;;13.20;99.90;;;;;;5063205;28;20123;-75
2022/07/04 00:05:11;;;;;;;4.45;2.42;;;13.20;99.90;;;;;;5061041;28;20056;-74
2022/07/04 00:07:37;;;;;;;9.00;2.83;;;13.20;99.90;;;;;;5082964;28;20048;-75
2022/07/04 00:10:05;;;;;;;5.78;1.95;;;13.10;99.90;;;;;;5067574;28;20051;-74
2022/07/04 00:12:30;;;;;;;3.75;2.80;;;13.10;99.90;;;;;;5061012;28;20040;-75
2022/07/04 00:14:56;;;;;;;4.20;3.47;;;13.10;99.90;;;;;;5066486;28;20127;-76
2022/07/04 00:17:22;;;;;;;7.80;2.97;;;13.20;99.90;;;;;;5064720;28;20036;-76
2022/07/04 00:19:47;;;;;;;5.35;2.67;;;13.00;99.90;;;;;;5063955;28;20049;-74
2022/07/04 00:22:13;;;;;;;4.22;2.95;;;13.00;99.90;;;;;;5055304;28;20412;-76
2022/07/04 00:24:39;;;;;;;4.82;2.75;;;13.00;99.90;;;;;;5082286;28;20067;-75
2022/07/04 00:27:05;;;;;;;4.28;2.78;;;13.00;99.90;;;;;;5065297;28;20134;-75
2022/07/04 00:29:30;;;;;;;5.78;2.92;;;13.00;99.90;;;;;;5054343;28;20055;-75
2022/07/04 00:31:56;;;;;;;4.85;2.95;;;13.00;99.90;;;;;;5061379;28;20036;-75
2022/07/04 00:34:22;;;;;;;6.20;3.70;;;13.00;99.90;;;;;;5063503;28;20044;-74
2022/07/04 00:36:47;;;;;;;5.88;3.00;;;13.00;99.90;;;;;;5066704;28;20143;-76
2022/07/04 00:39:13;;;;;;;6.75;4.63;;;12.90;99.90;;;;;;5070837;28;20055;-76
2022/07/04 00:41:39;;;;;;;5.63;3.20;;;12.90;99.90;;;;;;5071770;28;20121;-76
2022/07/04 00:44:08;;;;;;;6.88;4.28;;;13.00;99.90;;;;;;5059026;28;20047;-76
2022/07/04 00:46:34;;;;;;;8.80;4.18;;;12.90;99.90;;;;;;5070881;28;20052;-76
2022/07/04 00:49:00;;;;;;;8.48;4.32;;;12.90;99.90;;;;;;5067445;28;20056;-75
2022/07/04 00:51:26;;;;;;;9.73;4.60;;;12.80;99.90;;;;;;5075614;28;20048;-75
2022/07/04 00:53:53;;;;;;;7.88;4.50;;;12.90;99.90;;;;;;5078900;28;20094;-75
2022/07/04 00:56:24;;;;;;;6.47;4.15;;;12.90;99.90;;;;;;5068586;28;20410;-75
2022/07/04 00:58:50;;;;;;;5.18;4.15;;;12.90;99.90;;;;;;5062978;28;20044;-75
2022/07/04 01:01:17;;;;;;;7.90;3.67;;;12.90;99.90;;;;;;5070783;28;20064;-76
2022/07/04 01:03:43;;;;;;;7.20;4.40;;;12.90;99.90;;;;;;5066435;28;20126;-74
2022/07/04 01:06:09;;;;;;;5.03;4.07;;;12.90;99.90;;;;;;5067472;28;20086;-75
2022/07/04 01:08:40;;;;;;;8.70;4.32;;;12.90;99.90;;;;;;5066277;28;20044;-75
2022/07/04 01:11:07;;;;;;;7.53;4.38;;;12.90;99.90;;;;;;5064031;28;20411;-75
2022/07/04 01:13:33;;;;;;;5.85;4.93;;;13.00;99.90;;;;;;5064631;28;20063;-75
2022/07/04 01:15:58;;;;;;;5.78;4.30;;;12.90;99.90;;;;;;5064066;28;20028;-75
2022/07/04 01:18:24;;;;;;;7.97;4.47;;;12.80;99.90;;;;;;5066508;28;20048;-75
2022/07/04 01:20:50;;;;;;;6.38;4.45;;;12.90;99.90;;;;;;5071403;28;20035;-75
2022/07/04 01:23:16;;;;;;;12.02;4.78;;;12.80;99.90;;;;;;5088136;28;20478;-75
2022/07/04 01:25:42;;;;;;;4.95;3.97;;;12.90;99.90;;;;;;5063903;28;20650;-74
2022/07/04 01:28:08;;;;;;;7.10;4.40;;;12.80;99.90;;;;;;5063757;28;20089;-75
2022/07/04 01:30:35;;;;;;;6.25;4.60;;;12.90;99.90;;;;;;5065318;28;20441;-76
2022/07/04 01:33:00;;;;;;;5.68;4.88;;;12.80;99.90;;;;;;5063475;28;20504;-75
2022/07/04 01:35:26;;;;;;;8.73;6.10;;;12.80;99.90;;;;;;5067561;28;20043;-75
2022/07/04 01:37:52;;;;;;;6.07;5.13;;;12.80;99.90;;;;;;5065509;28;20513;-75
2022/07/04 01:40:18;;;;;;;6.78;5.13;;;12.70;99.90;;;;;;5062649;28;20076;-75
2022/07/04 01:42:44;;;;;;;9.43;6.40;;;12.70;99.90;;;;;;5065203;28;20552;-75
2022/07/04 01:45:11;;;;;;;6.13;4.88;;;12.80;99.90;;;;;;5063576;28;20047;-76
2022/07/04 01:47:37;;;;;;;7.30;5.38;;;12.70;99.90;;;;;;5064567;28;20056;-76
2022/07/04 01:50:05;;;;;;;8.35;5.95;;;12.80;99.90;;;;;;5063801;28;20152;-76
2022/07/04 01:52:31;;;;;;;5.75;5.07;;;12.70;99.90;;;;;;5066185;22;20049;-75
2022/07/04 01:54:57;;;;;;;14.88;6.20;;;12.80;99.90;;;;;;5032609;28;20037;-75
2022/07/04 01:57:23;;;;;;;9.57;6.90;;;12.70;99.90;;;;;;5031484;28;20091;-75
2022/07/04 02:02:34;;;;;;;8.90;6.18;;;12.80;99.90;;;;;;5038381;28;20434;-76
2022/07/04 02:04:59;;;;;;;8.75;5.63;;;12.70;99.90;;;;;;5042428;28;20490;-75
2022/07/04 02:07:25;;;;;;;7.03;5.65;;;12.80;99.90;;;;;;5040821;28;20029;-75
2022/07/04 02:09:51;;;;;;;7.20;6.22;;;12.70;99.90;;;;;;5045193;28;20376;-76
2022/07/04 02:15:01;;;;;;;10.63;6.97;;;12.80;99.90;;;;;;5042585;28;20476;-74
2022/07/04 02:17:27;;;;;;;10.23;6.28;;;12.80;99.90;;;;;;5043968;28;20043;-75
2022/07/04 02:19:52;;;;;;;9.35;6.07;;;12.80;99.90;;;;;;5041964;28;20084;-74
2022/07/04 02:22:18;;;;;;;7.68;6.00;;;12.80;99.90;;;;;;5042535;28;20542;-75
2022/07/04 02:24:44;;;;;;;9.00;6.35;;;12.70;99.90;;;;;;5044290;28;20442;-76
2022/07/04 02:27:10;;;;;;;6.90;5.90;;;12.70;99.90;;;;;;5044229;28;20041;-75
2022/07/04 02:29:36;;;;;;;8.75;5.97;;;12.70;99.90;;;;;;5045479;28;20040;-76
2022/07/04 02:32:03;;;;;;;8.50;5.50;;;12.80;99.90;;;;;;5038589;28;20080;-75
2022/07/04 02:34:28;;;;;;;12.63;6.95;;;12.70;99.90;;;;;;5043610;28;20033;-75
2022/07/04 02:36:54;;;;;;;7.93;6.18;;;12.80;99.90;;;;;;5042516;28;20107;-76
2022/07/04 02:39:20;;;;;;;9.77;6.45;;;12.70;99.90;;;;;;5040971;28;20060;-75
2022/07/04 02:41:46;;;;;;;9.48;6.45;;;12.70;99.90;;;;;;5041688;28;20048;-76
2022/07/04 02:44:11;;;;;;;7.55;6.85;;;12.70;99.90;;;;;;5042142;28;20475;-76
2022/07/04 02:46:37;;;;;;;7.07;6.35;;;12.60;99.90;;;;;;5041878;28;20045;-75
2022/07/04 02:49:03;;;;;;;11.18;7.25;;;12.60;99.90;;;;;;5041180;28;20041;-76
2022/07/04 02:51:29;;;;;;;8.80;6.72;;;12.60;99.90;;;;;;5044593;28;20045;-76
2022/07/04 02:53:55;;;;;;;12.40;7.05;;;12.60;99.90;;;;;;5040299;28;20076;-75
2022/07/04 02:56:21;;;;;;;10.85;6.15;;;12.50;99.90;;;;;;5042320;28;20501;-75
2022/07/04 02:58:47;;;;;;;10.15;6.82;;;12.50;99.90;;;;;;5043130;28;20040;-76
2022/07/04 03:01:12;;;;;;;7.75;6.95;;;12.60;99.90;;;;;;5036091;28;20033;-76
2022/07/04 03:03:39;;;;;;;8.27;5.85;;;12.60;99.90;;;;;;5043436;28;20072;-76
2022/07/04 03:06:08;;;;;;;7.88;5.35;;;12.60;99.90;;;;;;5044458;28;20037;-74
2022/07/04 03:08:35;;;;;;;8.90;6.33;;;12.50;99.90;;;;;;5024773;28;20134;-75
2022/07/04 03:11:01;;;;;;;11.02;6.57;;;12.60;99.90;;;;;;5041438;28;20139;-75
2022/07/04 03:13:27;;;;;;;6.90;6.13;;;12.50;99.90;;;;;;5038597;28;20033;-75
2022/07/04 03:15:53;;;;;;;11.32;7.63;;;12.60;99.90;;;;;;5040991;28;20033;-74
2022/07/04 03:18:19;;;;;;;13.38;6.80;;;12.50;99.90;;;;;;5048284;28;20696;-75
2022/07/04 03:20:45;;;;;;;8.05;6.43;;;12.50;99.90;;;;;;5048622;28;20051;-74
2022/07/04 03:23:10;;;;;;;12.32;7.55;;;12.50;99.90;;;;;;5045388;28;20049;-75
2022/07/04 03:25:36;;;;;;;9.15;7.53;;;12.50;99.90;;;;;;5044024;28;20103;-75
2022/07/04 03:28:02;;;;;;;8.18;7.18;;;12.40;99.90;;;;;;5040588;28;20115;-75
2022/07/04 03:30:28;;;;;;;9.80;6.35;;;12.50;99.90;;;;;;5044173;28;20056;-74
2022/07/04 03:32:54;;;;;;;12.20;7.07;;;12.50;99.90;;;;;;5043438;28;20087;-75
2022/07/04 03:35:20;;;;;;;8.23;7.22;;;12.60;99.90;;;;;;5045612;28;20044;-75
2022/07/04 03:37:46;;;;;;;10.50;7.45;;;12.50;99.90;;;;;;5046933;28;20037;-75
2022/07/04 03:40:12;;;;;;;9.05;7.80;;;12.60;99.90;;;;;;5047296;28;20401;-74
2022/07/04 03:42:38;;;;;;;9.18;7.55;;;12.60;99.90;;;;;;5042891;28;20060;-75
2022/07/04 03:45:05;;;;;;;10.98;8.27;;;12.60;99.90;;;;;;5042862;28;20729;-75
2022/07/04 03:47:31;;;;;;;7.93;6.03;;;12.60;99.90;;;;;;5048087;28;20131;-74
2022/07/04 03:49:57;;;;;;;8.20;7.05;;;12.70;99.90;;;;;;5046235;28;20184;-74
2022/07/04 03:52:23;;;;;;;8.30;6.80;;;12.60;99.90;;;;;;5028208;28;20057;-75
2022/07/04 03:54:49;;;;;;;9.15;6.55;;;12.60;99.90;;;;;;5043723;28;20049;-74
2022/07/04 03:57:14;;;;;;;9.10;7.38;;;12.60;99.90;;;;;;5046236;28;20045;-75
2022/07/04 03:59:40;;;;;;;8.57;7.55;;;12.70;99.90;;;;;;5045538;28;20056;-73
2022/07/04 04:02:06;;;;;;;10.95;6.75;;;12.60;99.90;;;;;;5044204;28;20082;-75
2022/07/04 04:07:16;;;;;;;8.82;6.53;;;12.60;99.90;;;;;;5048066;28;20055;-74
2022/07/04 04:09:42;;;;;;;17.45;7.35;;;12.70;99.90;;;;;;5011928;28;20399;-75
2022/07/04 04:12:08;;;;;;;8.20;7.05;;;12.90;99.90;;;;;;5043674;28;20072;-75
2022/07/04 04:14:33;;;;;;;9.95;7.18;;;12.90;99.90;;;;;;5041452;28;20382;-75
2022/07/04 04:16:59;;;;;;;8.25;5.70;;;12.90;99.90;;;;;;5048135;28;20079;-74
2022/07/04 04:19:25;;;;;;;7.45;6.63;;;13.20;99.90;;;;;;5043822;28;20041;-75
2022/07/04 04:21:50;;;;;;;9.98;6.50;;;13.20;99.90;;;;;;5044141;28;20202;-75
2022/07/04 04:24:16;;;;;;;9.50;5.57;;;13.20;99.90;;;;;;5043875;28;20396;-75
2022/07/04 04:26:42;;;;;;;10.32;6.35;;;13.20;99.90;;;;;;5046396;28;20048;-75
2022/07/04 04:29:08;;;;;;;8.27;6.38;;;13.50;99.90;;;;;;5042629;28;20048;-75
2022/07/04 04:31:33;;;;;;;8.52;6.72;;;13.40;99.90;;;;;;5017265;28;20585;-75
2022/07/04 04:33:59;;;;;;;13.20;6.45;;;13.90;99.90;;;;;;5032200;28;20041;-75
2022/07/04 04:36:25;;;;;;;7.72;6.15;;;14.40;99.90;;;;;;5043187;28;20207;-74
2022/07/04 04:38:51;;;;;;;8.43;5.88;;;14.10;99.90;;;;;;5043676;28;20124;-75
2022/07/04 04:41:16;;;;;;;9.40;5.68;;;14.40;99.90;;;;;;5047060;28;20534;-75
2022/07/04 04:43:42;;;;;;;5.85;4.97;;;14.30;99.90;;;;;;5042273;28;20071;-75
2022/07/04 04:46:09;;;;;;;9.82;5.70;;;14.10;99.90;;;;;;5042989;28;20595;-75
2022/07/04 04:48:34;;;;;;;7.82;5.20;;;13.90;99.90;;;;;;5042678;28;20051;-75
2022/07/04 04:51:00;;;;;;;6.22;5.63;;;14.50;99.90;;;;;;5042645;28;20036;-75
2022/07/04 04:53:26;;;;;;;10.57;6.38;;;14.20;99.90;;;;;;5044386;28;20063;-74
2022/07/04 04:55:55;;;;;;;8.35;5.85;;;14.10;99.90;;;;;;5041328;28;20048;-73
2022/07/04 04:58:21;;;;;;;7.47;5.78;;;14.00;99.90;;;;;;5048075;28;20442;-73
2022/07/04 05:00:49;;;;;;;8.77;6.15;;;14.00;99.90;;;;;;5044610;28;20545;-74
2022/07/04 05:03:15;;;;;;;11.18;5.50;;;14.00;99.90;;;;;;5044774;28;20084;-74
2022/07/04 05:05:41;;;;;;;9.25;6.28;;;14.00;99.90;;;;;;5043454;28;20110;-74
2022/07/04 05:08:07;;;;;;;6.80;5.80;;;14.10;99.90;;;;;;5042912;28;20072;-75
2022/07/04 05:10:33;;;;;;;13.15;7.45;;;14.30;99.90;;;;;;5045850;28;20095;-74
2022/07/04 05:12:58;;;;;;;10.60;6.85;;;14.30;99.90;;;;;;5044437;28;20132;-75
2022/07/04 05:15:24;;;;;;;8.45;6.28;;;14.20;99.90;;;;;;5044167;28;20044;-75
2022/07/04 05:17:50;;;;;;;9.02;6.90;;;14.30;99.90;;;;;;5044942;28;20211;-73
2022/07/04 05:20:16;;;;;;;10.65;6.68;;;14.30;99.90;;;;;;5044852;28;20398;-75
2022/07/04 05:22:42;;;;;;;14.02;7.32;;;14.30;99.90;;;;;;5046812;28;20045;-75
2022/07/04 05:25:08;;;;;;;12.05;6.70;;;14.40;99.90;;;;;;5043790;28;20091;-74
2022/07/04 05:27:34;;;;;;;7.97;5.85;;;14.50;99.90;;;;;;5044141;28;20057;-75
2022/07/04 05:29:59;;;;;;;14.88;6.68;;;14.50;99.90;;;;;;5036248;28;20049;-75
2022/07/04 05:32:26;;;;;;;7.28;6.20;;;14.60;99.90;;;;;;5042965;28;20085;-75
2022/07/04 05:34:52;;;;;;;11.45;6.35;;;14.60;99.90;;;;;;5040709;28;20071;-75
2022/07/04 05:37:17;;;;;;;7.78;6.28;;;14.70;99.90;;;;;;5042561;28;21980;-74
2022/07/04 05:39:44;;;;;;;12.00;6.93;;;14.90;99.90;;;;;;5043201;28;20075;-75
2022/07/04 05:42:09;;;;;;;13.27;7.07;;;14.90;99.90;;;;;;5042793;28;20375;-73
2022/07/04 05:44:35;;;;;;;9.43;6.47;;;15.00;99.90;;;;;;5042242;28;20045;-74
2022/07/04 05:47:01;;;;;;;8.20;5.38;;;15.40;99.90;;;;;;5042592;28;20495;-73
2022/07/04 05:49:26;;;;;;;16.88;7.05;;;15.40;99.90;;;;;;5041668;28;20076;-73
2022/07/04 05:51:52;;;;;;;9.60;6.75;;;15.60;99.90;;;;;;5044424;28;20041;-73
2022/07/04 05:54:19;;;;;;;9.25;6.50;;;15.50;99.90;;;;;;5042795;28;20044;-73
2022/07/04 05:56:44;;;;;;;9.77;6.03;;;15.50;99.90;;;;;;5043027;28;20419;-74
2022/07/04 05:59:10;;;;;;;10.88;5.93;;;15.70;99.90;;;;;;5043135;28;20045;-74
2022/07/04 06:01:37;;;;;;;8.10;6.20;;;15.70;99.90;;;;;;5046236;28;20040;-74
2022/07/04 06:04:04;;;;;;;9.68;5.00;;;15.80;99.90;;;;;;5040052;28;20667;-74
2022/07/04 06:06:30;;;;;;;13.10;5.35;;;15.80;99.90;;;;;;5044535;28;20080;-74
2022/07/04 06:08:56;;;;;;;11.25;5.72;;;15.90;99.90;;;;;;5045307;28;20435;-74
2022/07/04 06:11:22;;;;;;;12.32;6.03;;;16.00;99.90;;;;;;5042668;28;20506;-74
2022/07/04 06:13:50;;;;;;;10.70;5.78;;;16.10;99.90;;;;;;5042350;28;20048;-74
2022/07/04 06:16:16;;;;;;;9.07;4.45;;;16.20;99.90;;;;;;5046747;28;20090;-73
2022/07/04 06:18:42;;;;;;;11.77;5.18;;;16.30;99.90;;;;;;5044532;28;20427;-74
2022/07/04 06:21:08;;;;;;;38.05;5.72;;;16.40;99.90;;;;;;5043713;28;20041;-74
2022/07/04 06:23:33;;;;;;;9.38;4.57;;;16.40;99.90;;;;;;5041354;28;20037;-74
2022/07/04 06:25:59;;;;;;;7.80;4.80;;;16.50;99.90;;;;;;5044546;28;20126;-74
2022/07/04 06:28:25;;;;;;;9.27;4.43;;;16.40;99.90;;;;;;5040717;28;20045;-73
2022/07/04 06:30:51;;;;;;;10.30;5.03;;;16.40;99.90;;;;;;5043544;28;20561;-73
2022/07/04 06:33:18;;;;;;;7.82;4.00;;;16.50;99.90;;;;;;5041446;28;20102;-73
2022/07/04 06:35:44;;;;;;;10.32;4.70;;;16.70;99.90;;;;;;5042566;28;20065;-73
2022/07/04 06:38:37;;;;;;;11.50;5.65;;;16.70;99.90;;;;;;5044691;28;20078;-75
2022/07/04 06:41:03;;;;;;;7.47;3.97;;;16.80;99.90;;;;;;5036446;28;20044;-72
2022/07/04 06:43:28;;;;;;;7.18;3.97;;;16.90;99.90;;;;;;5043799;28;20124;-74
2022/07/04 06:45:55;;;;;;;9.82;3.95;;;17.00;99.90;;;;;;5045528;28;20118;-73
2022/07/04 06:48:21;;;;;;;5.95;3.17;;;17.20;99.90;;;;;;5042711;28;20037;-73
2022/07/04 06:50:46;;;;;;;11.80;4.47;;;17.30;99.90;;;;;;5043757;28;20495;-73
2022/07/04 06:53:12;;;;;;;11.82;3.28;;;17.40;99.90;;;;;;5041476;28;20092;-73
2022/07/04 06:55:39;;;;;;;9.90;4.30;;;18.00;99.90;;;;;;5044762;28;20499;-74
2022/07/04 06:58:07;;;;;;;7.70;2.85;;;18.30;99.90;;;;;;5043312;28;20048;-73
2022/07/04 07:00:33;;;;;;;10.07;3.88;;;18.20;99.90;;;;;;5045933;28;20052;-73
2022/07/04 07:03:00;;;;;;;10.35;3.95;;;18.80;99.90;;;;;;5043857;28;20049;-74
2022/07/04 07:05:26;;;;;;;4.63;3.70;;;20.20;99.90;;;;;;5040933;28;20049;-74
2022/07/04 07:07:52;;;;;;;7.65;3.08;;;20.40;99.90;;;;;;5043560;28;20460;-74
2022/07/04 07:10:18;;;;;;;9.50;2.65;;;20.20;99.90;;;;;;5042850;28;20083;-74
2022/07/04 07:12:44;;;;;;;9.73;3.47;;;20.20;99.90;;;;;;5043183;28;20506;-74
2022/07/04 07:15:10;;;;;;;11.52;3.33;;;20.70;99.90;;;;;;5040815;28;20049;-72
2022/07/04 07:17:36;;;;;;;9.43;3.30;;;20.30;99.90;;;;;;5044732;28;20449;-73
2022/07/04 07:20:02;;;;;;;8.70;3.50;;;20.70;99.90;;;;;;5042854;28;20056;-73
2022/07/04 07:22:28;;;;;;;8.65;3.17;;;20.80;99.90;;;;;;5045161;28;20435;-75
2022/07/04 07:24:54;;;;;;;7.90;2.55;;;21.30;99.90;;;;;;5024810;28;20040;-74
2022/07/04 07:27:20;;;;;;;9.27;2.83;;;20.50;99.90;;;;;;5044437;28;20604;-74
2022/07/04 07:29:45;;;;;;;7.22;2.00;;;19.80;99.90;;;;;;5043634;28;20058;-72
2022/07/04 07:32:11;;;;;;;7.60;3.53;;;20.00;99.90;;;;;;5045008;28;20048;-73
2022/07/04 07:34:37;;;;;;;5.85;1.63;;;19.90;99.90;;;;;;5039759;28;20045;-74
2022/07/04 07:37:03;;;;;;;5.65;2.40;;;20.40;99.90;;;;;;5041295;28;20037;-74
2022/07/04 07:39:29;;;;;;;6.38;1.73;;;20.50;99.90;;;;;;5039556;28;20049;-74
2022/07/04 07:41:55;;;;;;;4.05;1.15;;;19.70;99.90;;;;;;5040364;28;20379;-74
2022/07/04 07:44:20;;;;;;;7.72;1.55;;;19.10;99.90;;;;;;5040452;28;20739;-74
2022/07/04 07:46:46;;;;;;;6.30;1.55;;;18.70;99.90;;;;;;5043245;28;20080;-74
2022/07/04 07:49:11;;;;;;;2.65;1.10;;;18.50;99.90;;;;;;5044263;28;20124;-73
2022/07/04 07:51:37;;;;;;;4.60;1.80;;;18.20;99.90;;;;;;5042612;28;20430;-73
2022/07/04 07:54:03;;;;;;;5.57;2.15;;;18.00;99.90;;;;;;5040809;28;20496;-74
2022/07/04 07:56:29;;;;;;;3.80;2.28;;;17.80;99.90;;;;;;5043835;28;20049;-74
2022/07/04 07:58:54;;;;;;;4.00;1.20;;;17.60;99.90;;;;;;5044568;28;20098;-74
2022/07/04 08:01:21;;;;;;;6.40;2.42;;;17.50;99.90;;;;;;5042457;28;20043;-74
2022/07/04 08:06:32;;;;;;;5.13;1.70;;;17.40;99.90;;;;;;5035215;28;20048;-74
2022/07/04 08:08:58;;;;;;;3.70;1.52;;;17.40;99.90;;;;;;5046617;28;20084;-74
2022/07/04 08:11:23;;;;;;;4.55;1.92;;;17.40;99.90;;;;;;5042969;28;20083;-74
2022/07/04 08:13:49;;;;;;;4.13;1.45;;;17.40;99.90;;;;;;5047010;28;20084;-74
2022/07/04 08:16:15;;;;;;;2.25;1.60;;;17.40;99.90;;;;;;5047738;28;20123;-75
2022/07/04 08:18:40;;;;;;;6.85;1.90;;;17.80;99.90;;;;;;5039609;28;20041;-73
2022/07/04 08:21:06;;;;;;;3.22;1.50;;;18.30;99.90;;;;;;5044207;28;20483;-72
2022/07/04 08:23:33;;;;;;;4.38;1.60;;;18.90;99.90;;;;;;5046393;28;20044;-78
2022/07/04 08:26:00;;;;;;;5.22;1.42;;;19.00;99.90;;;;;;5046343;28;20491;-76
2022/07/04 08:28:27;;;;;;;4.80;2.05;;;19.10;99.90;;;;;;5043477;28;20064;-74
2022/07/04 08:30:53;;;;;;;3.83;1.27;;;19.40;99.90;;;;;;5044589;28;20512;-76
2022/07/04 08:33:19;;;;;;;2.10;1.05;;;19.00;99.90;;;;;;5041447;28;20091;-72
2022/07/04 08:35:45;;;;;;;3.03;1.40;;;18.80;99.90;;;;;;5046545;28;20041;-74
2022/07/04 08:38:10;;;;;;;2.55;1.45;;;18.50;99.90;;;;;;5045855;28;20045;-75
2022/07/04 08:40:36;;;;;;;2.97;0.88;;;18.40;99.90;;;;;;5038354;28;20051;-75
2022/07/04 08:43:03;;;;;;;5.00;1.13;;;18.20;99.90;;;;;;5042752;28;20057;-75
2022/07/04 08:45:33;;;;;;;2.15;0.60;;;18.60;99.90;;;;;;5040657;28;20052;-73
2022/07/04 08:48:06;;;;;;;2.10;0.93;;;19.40;99.90;;;;;;5031952;28;20045;-74
2022/07/04 08:50:33;;;;;;;1.75;1.23;;;19.50;99.90;;;;;;5043728;28;20045;-75
2022/07/04 08:53:28;;;;;;;2.13;1.20;;;19.20;99.90;;;;;;5044548;28;20072;-75
2022/07/04 08:58:41;;;;;;;2.45;1.50;;;18.80;99.90;;;;;;5045227;28;20087;-76
2022/07/04 09:01:14;;;;;;;1.48;1.00;;;18.70;99.90;;;;;;5045588;28;20125;-75
2022/07/04 09:03:42;;;;;;;4.13;1.10;;;18.70;99.90;;;;;;5040596;28;20041;-75
2022/07/04 09:06:09;;;;;;;1.90;0.90;;;18.60;99.90;;;;;;5045809;28;20048;-75
2022/07/04 09:08:34;;;;;;;3.53;1.00;;;18.60;99.90;;;;;;5042082;28;20076;-74
2022/07/04 09:11:01;;;;;;;4.07;1.02;;;18.50;99.90;;;;;;5042480;28;20084;-75
2022/07/04 09:13:27;;;;;;;2.30;0.90;;;18.50;99.90;;;;;;5042325;28;20048;-75
2022/07/04 09:15:53;;;;;;;1.90;0.95;;;18.50;99.90;;;;;;5043199;28;20033;-75
2022/07/04 09:18:27;;;;;;;2.65;0.73;;;18.60;99.90;;;;;;5045134;28;20041;-73
2022/07/04 09:20:54;;;;;;;4.78;1.33;;;19.40;99.90;;;;;;5044518;28;20037;-74
2022/07/04 09:23:26;;;;;;;5.70;1.90;;;20.10;99.90;;;;;;5044781;28;20045;-75
2022/07/04 09:26:11;;;;;;;6.93;1.98;;;19.70;99.90;;;;;;5027011;28;20124;-74
2022/07/04 09:28:38;;;;;;;3.33;1.55;;;19.20;99.90;;;;;;5045423;28;20045;-74
2022/07/04 09:31:24;;;;;;;2.92;1.42;;;19.00;99.90;;;;;;5045645;28;20053;-75
2022/07/04 09:33:58;;;;;;;3.42;1.17;;;19.20;99.90;;;;;;5041208;28;20036;-75
2022/07/04 09:36:29;;;;;;;3.65;1.23;;;19.50;99.90;;;;;;5046159;28;20098;-74
2022/07/04 09:39:14;;;;;;;1.70;1.05;;;19.80;99.90;;;;;;5045140;28;20037;-73
2022/07/04 09:41:57;;;;;;;4.72;1.30;;;19.60;99.90;;;;;;5023702;28;20049;-74
2022/07/04 09:44:26;;;;;;;5.45;1.33;;;20.00;99.90;;;;;;5018846;28;20375;-74
2022/07/04 09:46:52;;;;;;;5.07;1.17;;;20.40;99.90;;;;;;5041252;28;20064;-74
2022/07/04 09:49:19;;;;;;;5.15;1.17;;;20.40;99.90;;;;;;5044614;28;20049;-75
2022/07/04 09:51:50;;;;;;;2.78;0.93;;;20.60;99.90;;;;;;5045872;28;20052;-75
2022/07/04 09:54:31;;;;;;;2.38;0.98;;;20.50;99.90;;;;;;5045780;28;20041;-76
2022/07/04 09:57:02;;;;;;;2.17;0.95;;;20.60;99.90;;;;;;5043623;28;20055;-75
2022/07/04 09:59:29;;;;;;;3.65;1.73;;;20.90;99.90;;;;;;5010780;28;20070;-75
2022/07/04 10:02:15;;;;;;;3.72;0.80;;;20.90;99.90;;;;;;5044406;28;20088;-75
2022/07/04 10:04:47;;;;;;;4.03;1.50;;;20.60;99.90;;;;;;5041506;28;20065;-75
2022/07/04 10:07:31;;;;;;;5.57;0.85;;;20.10;99.90;;;;;;5042517;28;20047;-75
2022/07/04 10:09:56;;;;;;;4.68;1.60;;;20.10;99.90;;;;;;5041685;28;20053;-76
2022/07/04 10:12:27;;;;;;;4.93;0.90;;;20.50;99.90;;;;;;5043064;28;20056;-75
2022/07/04 10:14:56;;;;;;;2.08;0.88;;;20.70;99.90;;;;;;5042865;28;20151;-75
2022/07/04 10:17:22;;;;;;;0.82;0.70;;;21.00;99.90;;;;;;5043816;28;20037;-75
2022/07/04 10:19:51;;;;;;;2.28;0.90;;;21.10;99.90;;;;;;5042628;28;20044;-75
2022/07/04 10:22:18;;;;;;;1.73;0.82;;;21.10;99.90;;;;;;5032321;28;20616;-75
2022/07/04 10:24:44;;;;;;;1.08;0.47;;;21.20;99.90;;;;;;5045052;28;20134;-75
2022/07/04 10:27:11;;;;;;;3.08;0.98;;;21.10;99.90;;;;;;5041764;28;20078;-75
2022/07/04 10:29:37;;;;;;;3.47;0.77;;;21.30;99.90;;;;;;5044466;28;20056;-76
2022/07/04 10:32:06;;;;;;;6.88;0.98;;;21.60;99.90;;;;;;5026113;28;20087;-75
2022/07/04 10:34:39;;;;;;;2.35;0.80;;;21.20;99.90;;;;;;5042874;28;20052;-75
2022/07/04 10:37:05;;;;;;;1.45;0.68;;;20.40;99.90;;;;;;5044530;28;20609;-79
2022/07/04 10:39:30;;;;;;;7.22;1.45;;;21.00;99.90;;;;;;5044502;28;20044;-75
2022/07/04 10:41:58;;;;;;;2.50;0.98;;;21.30;99.90;;;;;;5044017;28;20452;-76
2022/07/04 10:44:26;;;;;;;1.17;0.75;;;21.30;99.90;;;;;;5043540;28;20077;-76
2022/07/04 10:46:56;;;;;;;2.60;1.27;;;21.60;99.90;;;;;;5042985;28;20743;-77
2022/07/04 10:49:25;;;;;;;1.23;0.55;;;21.70;99.90;;;;;;5040863;28;20471;-76
2022/07/04 10:51:52;;;;;;;4.38;0.60;;;21.60;99.90;;;;;;5043581;28;20550;-75
2022/07/04 10:54:30;;;;;;;1.30;0.35;;;21.50;99.90;;;;;;5044901;28;20068;-76
2022/07/04 10:57:08;;;;;;;1.98;0.85;;;21.50;99.90;;;;;;5044453;28;20385;-76
2022/07/04 10:59:34;;;;;;;3.22;0.60;;;21.30;99.90;;;;;;5045077;28;20414;-76
2022/07/04 11:02:11;;;;;;;1.52;0.50;;;21.40;99.90;;;;;;5044407;28;20045;-76
2022/07/04 11:04:55;;;;;;;2.55;0.40;;;21.70;99.90;;;;;;5041691;28;20819;-81
2022/07/04 11:07:34;;;;;;;4.20;1.85;;;21.90;99.90;;;;;;5045664;28;20045;-77
2022/07/04 11:10:12;;;;;;;1.63;0.52;;;21.90;99.90;;;;;;5044042;28;20037;-75
2022/07/04 11:13:00;;;;;;;3.75;1.63;;;21.40;99.90;;;;;;5042668;28;20108;-74
2022/07/04 11:15:31;;;;;;;1.08;0.40;;;21.60;99.90;;;;;;5025636;28;20087;-73
2022/07/04 11:18:00;;;;;;;1.15;0.70;;;21.70;99.90;;;;;;5041527;28;20056;-72
2022/07/04 11:20:28;;;;;;;4.78;1.25;;;21.80;99.90;;;;;;5040408;28;20041;-75
2022/07/04 11:23:06;;;;;;;2.38;0.50;;;21.50;99.90;;;;;;5043924;28;20110;-73
2022/07/04 11:25:32;;;;;;;4.68;1.08;;;21.90;99.90;;;;;;5040542;28;20052;-73
2022/07/04 11:28:16;;;;;;;3.28;1.00;;;21.70;99.90;;;;;;5042504;28;20045;-73
2022/07/04 11:30:49;;;;;;;4.20;0.80;;;21.20;99.90;;;;;;5038179;28;20124;-72
2022/07/04 11:33:20;;;;;;;6.45;1.88;;;21.00;99.90;;;;;;5042315;28;20155;-73
2022/07/04 11:36:02;;;;;;;4.43;0.73;;;20.60;99.90;;;;;;5047456;28;20090;-73
2022/07/04 11:38:43;;;;;;;4.57;2.00;;;21.10;99.90;;;;;;5046830;28;20057;-73
2022/07/04 11:46:38;;;;;;;1.90;0.70;;;20.30;99.90;;;;;;5048127;28;20056;-73
2022/07/04 11:49:11;;;;;;;2.55;0.70;;;20.70;99.90;;;;;;5047024;28;20454;-75
2022/07/04 11:51:42;;;;;;;2.92;1.17;;;20.80;99.90;;;;;;5027449;28;20053;-73
2022/07/04 11:54:08;;;;;;;7.57;1.20;;;21.30;99.90;;;;;;5040441;28;20606;-72
2022/07/04 11:56:34;;;;;;;6.00;0.80;;;21.30;99.90;;;;;;5047877;28;20033;-72
2022/07/04 11:59:13;;;;;;;4.25;0.80;;;20.80;99.90;;;;;;5029406;28;20047;-73
2022/07/04 12:01:39;;;;;;;1.63;0.57;;;20.80;99.90;;;;;;5045877;28;20037;-73
2022/07/04 12:04:16;;;;;;;5.72;1.17;;;20.80;99.90;;;;;;5044434;28;20049;-73
2022/07/04 12:06:42;;;;;;;2.53;1.20;;;21.40;99.90;;;;;;5030707;28;20049;-73
2022/07/04 12:09:08;;;;;;;6.03;1.10;;;21.00;99.90;;;;;;5046845;28;20029;-72
2022/07/04 12:11:58;;;;;;;2.75;0.60;;;20.50;99.90;;;;;;5044908;28;20083;-73
2022/07/04 12:14:25;;;;;;;3.58;1.17;;;20.90;99.90;;;;;;5044300;28;20064;-73
2022/07/04 12:17:31;;;;;;;0.85;0.60;;;21.20;99.90;;;;;;5046111;28;20453;-73
2022/07/04 12:20:00;;;;;;;4.22;0.95;;;21.20;99.90;;;;;;5038139;28;20052;-73
2022/07/04 12:22:37;;;;;;;2.65;0.73;;;21.30;99.90;;;;;;5029415;28;20045;-73
2022/07/04 12:25:05;;;;;;;2.13;0.60;;;21.70;99.90;;;;;;5044073;28;20048;-73
2022/07/04 12:27:31;;;;;;;2.55;0.93;;;21.90;99.90;;;;;;5044859;28;20379;-72
2022/07/04 12:29:59;;;;;;;3.72;0.90;;;21.80;99.90;;;;;;5046240;28;20043;-72
2022/07/04 12:32:44;;;;;;;0.77;0.70;;;21.40;99.90;;;;;;5044269;28;20045;-73
2022/07/04 12:35:30;;;;;;;3.42;0.68;;;21.70;99.90;;;;;;5034124;28;20041;-74
2022/07/04 12:38:08;;;;;;;1.27;0.47;;;21.80;99.90;;;;;;5045072;28;20499;-74
2022/07/04 12:40:35;;;;;;;3.63;0.68;;;22.10;99.90;;;;;;5045178;28;20087;-73
2022/07/04 12:43:01;;;;;;;2.83;0.63;;;21.70;99.90;;;;;;5046280;28;20049;-73
2022/07/04 12:45:45;;;;;;;0.43;0.40;;;21.50;99.90;;;;;;5043461;28;20090;-73
2022/07/04 12:48:23;;;;;;;1.60;0.95;;;21.50;99.90;;;;;;5046225;28;20045;-72
2022/07/04 12:50:49;;;;;;;0.77;0.30;;;21.00;99.90;;;;;;5043136;28;20035;-72
2022/07/04 12:53:15;;;;;;;1.23;0.40;;;21.30;99.90;;;;;;5043381;28;20620;-72
2022/07/04 12:55:43;;;;;;;1.92;0.50;;;21.30;99.90;;;;;;5045836;28;20053;-72
2022/07/04 12:58:09;;;;;;;3.13;0.75;;;21.00;99.90;;;;;;5044398;28;21277;-73
2022/07/04 13:00:35;;;;;;;3.58;0.85;;;21.40;99.90;;;;;;5045232;28;20070;-73
2022/07/04 13:03:01;;;;;;;4.53;0.65;;;21.60;99.90;;;;;;5039268;28;20140;-73
2022/07/04 13:05:27;;;;;;;1.25;0.43;;;21.50;99.90;;;;;;5046546;28;20124;-73
2022/07/04 13:07:53;;;;;;;2.35;1.40;;;21.40;99.90;;;;;;5046982;28;20392;-73